createdAt,value
2018-09-20T00:01:52.663Z,6.53
2018-09-20T00:06:45.283Z,6.70
2018-09-20T00:11:37.868Z,6.50
2018-09-20T00:16:30.505Z,6.60
2018-09-20T00:21:23.159Z,6.67
2018-09-20T00:26:15.755Z,6.57
2018-09-20T00:31:08.322Z,6.40
2018-09-20T00:36:00.945Z,6.20
2018-09-20T00:40:53.543Z,6.37
2018-09-20T00:45:46.150Z,6.50
2018-09-20T00:50:38.723Z,6.50
2018-09-20T00:55:31.318Z,6.93
2018-09-20T01:00:23.912Z,6.90
2018-09-20T01:05:16.535Z,6.87
2018-09-20T01:10:09.183Z,7.17
2018-09-20T01:15:01.845Z,6.13
2018-09-20T01:19:54.521Z,6.97
2018-09-20T01:24:47.094Z,6.97
2018-09-20T01:29:39.737Z,6.67
2018-09-20T01:34:32.372Z,6.57
2018-09-20T01:39:24.971Z,6.80
2018-09-20T01:44:17.632Z,6.77
2018-09-20T01:49:09.793Z,7.00
2018-09-20T01:54:02.382Z,7.50
2018-09-20T01:58:54.906Z,6.67
2018-09-20T02:03:47.519Z,6.63
2018-09-20T02:08:40.089Z,7.13
2018-09-20T02:13:32.671Z,6.80
2018-09-20T02:18:25.315Z,6.73
2018-09-20T02:23:17.940Z,6.97
2018-09-20T02:28:10.556Z,6.77
2018-09-20T02:33:03.148Z,6.90
2018-09-20T02:37:55.871Z,6.57
2018-09-20T02:42:48.446Z,6.20
2018-09-20T02:47:41.002Z,6.53
2018-09-20T02:52:33.585Z,6.87
2018-09-20T02:57:26.219Z,7.43
2018-09-20T03:02:18.827Z,7.00
2018-09-20T03:07:11.452Z,7.03
2018-09-20T03:12:04.086Z,7.60
2018-09-20T03:16:56.728Z,7.20
2018-09-20T03:21:49.659Z,6.90
2018-09-20T03:26:42.236Z,7.80
2018-09-20T03:31:34.902Z,8.60
2018-09-20T03:36:27.430Z,7.67
2018-09-20T03:41:20.008Z,7.87
2018-09-20T03:46:13.000Z,8.03
2018-09-20T03:51:05.858Z,8.03
2018-09-20T03:55:58.491Z,7.67
2018-09-20T04:00:51.276Z,8.23
2018-09-20T04:05:43.939Z,9.23
2018-09-20T04:10:36.686Z,8.20
2018-09-20T04:15:29.270Z,8.47
2018-09-20T04:20:21.838Z,8.47
2018-09-20T04:25:14.423Z,8.57
2018-09-20T04:30:07.090Z,10.00
2018-09-20T04:34:59.681Z,9.50
2018-09-20T04:39:52.282Z,9.80
2018-09-20T04:44:44.871Z,10.37
2018-09-20T04:49:37.635Z,10.93
2018-09-20T04:54:30.249Z,9.97
2018-09-20T04:59:22.835Z,10.50
2018-09-20T05:04:15.447Z,11.17
2018-09-20T05:09:10.957Z,10.87
2018-09-20T05:14:03.611Z,11.20
2018-09-20T05:18:56.303Z,11.87
2018-09-20T05:23:48.887Z,11.20
2018-09-20T05:28:41.482Z,11.40
2018-09-20T05:33:34.067Z,10.80
2018-09-20T05:38:26.728Z,10.43
2018-09-20T05:43:19.353Z,11.27
2018-09-20T05:48:11.967Z,11.10
2018-09-20T05:53:04.651Z,11.67
2018-09-20T05:57:57.249Z,11.57
2018-09-20T06:02:49.855Z,12.27
2018-09-20T06:07:42.936Z,11.50
2018-09-20T06:12:35.527Z,12.43
2018-09-20T06:17:28.107Z,12.63
2018-09-20T06:22:20.711Z,12.57
2018-09-20T06:27:13.255Z,12.13
2018-09-20T06:32:05.909Z,12.80
2018-09-20T06:36:58.545Z,12.03
2018-09-20T06:41:51.167Z,12.57
2018-09-20T06:46:43.951Z,11.33
2018-09-20T06:51:36.474Z,11.53
2018-09-20T06:56:29.113Z,10.77
2018-09-20T07:01:21.761Z,9.80
2018-09-20T07:06:14.396Z,8.93
2018-09-20T07:11:07.107Z,9.57
2018-09-20T07:15:59.683Z,9.03
2018-09-20T07:20:52.326Z,9.57
2018-09-20T07:25:44.994Z,8.60
2018-09-20T07:30:37.520Z,7.57
2018-09-20T07:35:30.169Z,7.23
2018-09-20T07:40:22.830Z,6.67
2018-09-20T07:45:15.451Z,7.13
2018-09-20T07:50:08.072Z,6.47
2018-09-20T07:55:00.819Z,6.93
2018-09-20T07:59:53.552Z,5.83
2018-09-20T08:04:46.125Z,6.10
2018-09-20T08:09:38.676Z,4.73
2018-09-20T08:14:31.246Z,5.83
2018-09-20T08:19:23.903Z,5.70
2018-09-20T08:24:16.462Z,4.67
2018-09-20T08:29:09.110Z,5.20
2018-09-20T08:34:01.625Z,4.60
2018-09-20T08:38:54.191Z,3.60
2018-09-20T08:43:46.742Z,4.20
2018-09-20T08:48:39.290Z,3.90
2018-09-20T08:53:31.907Z,3.80
2018-09-20T08:58:24.510Z,4.87
2018-09-20T09:03:17.110Z,4.23
2018-09-20T09:08:09.754Z,4.10
2018-09-20T09:13:02.372Z,4.13
2018-09-20T09:17:55.020Z,4.40
2018-09-20T09:22:47.585Z,3.63
2018-09-20T09:27:40.206Z,4.23
2018-09-20T09:32:32.798Z,3.70
2018-09-20T09:37:25.360Z,4.27
2018-09-20T09:42:18.084Z,4.07
2018-09-20T09:47:10.682Z,4.00
2018-09-20T09:52:03.378Z,4.00
2018-09-20T09:56:56.042Z,3.70
2018-09-20T10:01:48.643Z,3.70
2018-09-20T10:06:41.309Z,4.40
2018-09-20T10:11:33.971Z,4.30
2018-09-20T10:16:26.521Z,3.90
2018-09-20T10:21:19.121Z,3.50
2018-09-20T10:26:13.329Z,4.00
2018-09-20T10:31:05.954Z,3.93
2018-09-20T10:35:58.586Z,3.90
2018-09-20T10:40:51.199Z,4.40
2018-09-20T10:45:43.784Z,4.67
2018-09-20T10:50:36.381Z,4.50
2018-09-20T10:55:29.143Z,4.47
2018-09-20T11:00:21.727Z,4.70
2018-09-20T11:05:14.418Z,4.57
2018-09-20T11:10:07.136Z,4.67
2018-09-20T11:14:59.872Z,4.23
2018-09-20T11:19:55.155Z,4.37
2018-09-20T11:24:51.228Z,4.00
2018-09-20T11:29:44.019Z,4.30
2018-09-20T11:34:36.805Z,4.30
2018-09-20T11:39:30.651Z,4.30
2018-09-20T11:44:23.283Z,4.00
2018-09-20T11:49:16.127Z,4.13
2018-09-20T11:54:08.902Z,4.03
2018-09-20T11:59:01.665Z,4.40
2018-09-20T12:03:54.439Z,4.50
2018-09-20T12:08:47.265Z,4.37
2018-09-20T12:18:39.408Z,4.30
2018-09-20T12:23:32.202Z,4.23
2018-09-20T12:28:24.959Z,4.63
2018-09-20T12:33:17.489Z,4.50
2018-09-20T12:38:10.100Z,4.30
2018-09-20T12:43:02.815Z,4.60
2018-09-20T12:47:55.458Z,4.70
2018-09-20T12:52:48.022Z,4.40
2018-09-20T12:57:40.619Z,4.60
2018-09-20T13:02:33.229Z,4.80
2018-09-20T13:07:25.869Z,4.50
2018-09-20T13:12:18.618Z,4.63
2018-09-20T13:17:11.246Z,4.53
2018-09-20T13:22:03.891Z,4.73
2018-09-20T13:26:56.584Z,4.73
2018-09-20T13:31:49.234Z,4.90
2018-09-20T13:36:41.863Z,4.97
2018-09-20T13:41:34.492Z,4.60
2018-09-20T13:46:27.257Z,5.00
2018-09-20T13:51:20.012Z,4.70
2018-09-20T13:56:12.628Z,4.53
2018-09-20T14:01:05.456Z,4.77
2018-09-20T14:05:58.165Z,4.63
2018-09-20T14:10:50.920Z,4.60
2018-09-20T14:15:43.807Z,5.00
2018-09-20T14:20:36.343Z,4.77
2018-09-20T14:25:28.890Z,5.40
2018-09-20T14:30:21.612Z,5.17
2018-09-20T14:35:14.474Z,4.70
2018-09-20T14:40:07.071Z,4.40
2018-09-20T14:44:59.651Z,5.00
2018-09-20T14:49:52.363Z,4.50
2018-09-20T14:54:45.044Z,4.50
2018-09-20T14:59:37.688Z,4.43
2018-09-20T15:04:30.215Z,4.73
2018-09-20T15:09:22.883Z,4.43
2018-09-20T15:14:15.467Z,4.73
2018-09-20T15:19:08.103Z,4.37
2018-09-20T15:24:00.680Z,4.47
2018-09-20T15:28:53.254Z,4.37
2018-09-20T15:33:45.847Z,4.57
2018-09-20T15:38:38.436Z,4.83
2018-09-20T15:43:30.990Z,4.53
2018-09-20T15:48:23.561Z,4.50
2018-09-20T15:53:16.317Z,4.40
2018-09-20T15:58:09.098Z,4.90
2018-09-20T16:03:01.618Z,4.77
2018-09-20T16:07:54.151Z,5.07
2018-09-20T16:12:46.715Z,4.83
2018-09-20T16:17:39.338Z,4.77
2018-09-20T16:22:31.903Z,4.93
2018-09-20T16:27:24.546Z,4.43
2018-09-20T16:34:57.529Z,5.67
2018-09-20T16:39:53.513Z,4.93
2018-09-20T16:44:46.050Z,5.53
2018-09-20T16:49:38.683Z,5.40
2018-09-20T16:54:31.391Z,5.73
2018-09-20T16:59:24.039Z,5.73
2018-09-20T17:04:16.596Z,6.43
2018-09-20T17:09:10.146Z,6.90
2018-09-20T17:14:02.805Z,6.80
2018-09-20T17:18:55.474Z,6.20
2018-09-20T17:23:48.115Z,6.67
2018-09-20T17:28:40.695Z,6.33
2018-09-20T17:33:33.311Z,6.00
2018-09-20T17:38:27.181Z,6.00
2018-09-20T17:43:28.378Z,7.53
2018-09-20T17:48:21.267Z,6.70
2018-09-20T17:53:14.513Z,6.37
2018-09-20T17:58:07.939Z,6.47
2018-09-20T18:03:00.596Z,10.87
2018-09-20T18:07:53.703Z,7.73
2018-09-20T18:12:46.362Z,9.20
2018-09-20T18:17:39.027Z,7.40
2018-09-20T18:22:31.800Z,7.60
2018-09-20T18:27:24.376Z,7.07
2018-09-20T18:32:17.080Z,7.37
2018-09-20T18:37:09.795Z,7.70
2018-09-20T18:42:02.629Z,7.20
2018-09-20T18:46:55.328Z,6.80
2018-09-20T18:51:48.007Z,7.40
2018-09-20T18:56:40.514Z,7.30
2018-09-20T19:01:33.246Z,7.17
2018-09-20T19:06:25.930Z,7.67
2018-09-20T19:11:18.459Z,8.60
2018-09-20T19:16:11.453Z,8.83
2018-09-20T19:21:04.041Z,7.30
2018-09-20T19:25:56.582Z,8.07
2018-09-20T19:30:49.234Z,7.43
2018-09-20T19:35:41.823Z,7.63
2018-09-20T19:40:34.457Z,8.57
2018-09-20T19:45:27.073Z,8.17
2018-09-20T19:50:19.765Z,8.77
2018-09-20T19:55:12.451Z,10.97
2018-09-20T20:00:05.125Z,10.07
2018-09-20T20:04:57.658Z,9.07
2018-09-20T20:09:50.264Z,9.30
2018-09-20T20:14:42.945Z,9.83
2018-09-20T20:19:35.567Z,10.00
2018-09-20T20:24:28.139Z,10.10
2018-09-20T20:29:20.694Z,10.20
2018-09-20T20:34:13.243Z,12.37
2018-09-20T20:39:07.662Z,10.13
2018-09-20T20:44:00.256Z,11.23
2018-09-20T20:48:52.951Z,11.97
2018-09-20T20:53:45.566Z,11.27
2018-09-20T20:58:38.315Z,11.93
2018-09-20T21:03:30.846Z,11.60
2018-09-20T21:08:23.385Z,12.97
2018-09-20T21:13:49.226Z,12.43
2018-09-20T21:18:41.827Z,16.53
2018-09-20T21:23:34.543Z,15.57
2018-09-20T21:28:27.495Z,15.13
2018-09-20T21:33:20.186Z,16.70
2018-09-20T21:38:12.855Z,17.13
2018-09-20T21:43:05.385Z,15.70
2018-09-20T21:47:58.015Z,14.70
2018-09-20T21:52:50.632Z,15.37
2018-09-20T21:57:43.434Z,15.87
2018-09-20T22:02:41.855Z,16.50
2018-09-20T22:07:35.517Z,15.87
2018-09-20T22:12:28.077Z,15.23
2018-09-20T22:17:20.647Z,15.77
2018-09-20T22:22:13.307Z,15.70
2018-09-20T22:27:06.957Z,14.37
2018-09-20T22:31:59.559Z,14.33
2018-09-20T22:36:52.102Z,13.83
2018-09-20T22:41:44.653Z,14.60
2018-09-20T22:46:37.260Z,14.57
2018-09-20T22:51:29.858Z,15.40
2018-09-20T22:56:22.615Z,14.97
2018-09-20T23:01:15.405Z,15.00
2018-09-20T23:06:07.921Z,15.43
2018-09-20T23:11:00.532Z,15.40
2018-09-20T23:15:53.114Z,15.80
2018-09-20T23:20:45.724Z,16.63
2018-09-20T23:25:38.391Z,15.00
2018-09-20T23:30:30.943Z,14.70
2018-09-20T23:35:23.639Z,14.60
2018-09-20T23:40:16.328Z,16.53
2018-09-20T23:45:08.937Z,15.50
2018-09-20T23:50:01.503Z,15.70
2018-09-20T23:54:54.096Z,14.63
2018-09-20T23:59:46.686Z,13.80
